sensor_id;sensor_type;location;lat;lon;timestamp;P1;durP1;ratioP1;P2;durP2;ratioP2
8476;SDS011;4275;42.854;23.222;2024-03-06T00:00:15;10.97;;;10.67;;
8476;SDS011;4275;42.854;23.222;2024-03-06T00:02:44;10.73;;;10.43;;
8476;SDS011;4275;42.854;23.222;2024-03-06T00:05:11;9.40;;;9.20;;
8476;SDS011;4275;42.854;23.222;2024-03-06T00:07:38;10.70;;;10.40;;
8476;SDS011;4275;42.854;23.222;2024-03-06T00:10:05;10.30;;;10.00;;
8476;SDS011;4275;42.854;23.222;2024-03-06T00:12:33;10.10;;;9.80;;
8476;SDS011;4275;42.854;23.222;2024-03-06T00:15:00;9.33;;;9.10;;
8476;SDS011;4275;42.854;23.222;2024-03-06T00:17:28;11.00;;;10.70;;
8476;SDS011;4275;42.854;23.222;2024-03-06T00:19:56;9.83;;;9.53;;
8476;SDS011;4275;42.854;23.222;2024-03-06T00:22:23;9.10;;;8.90;;
8476;SDS011;4275;42.854;23.222;2024-03-06T00:24:50;8.10;;;7.90;;
8476;SDS011;4275;42.854;23.222;2024-03-06T00:27:18;8.40;;;8.20;;
8476;SDS011;4275;42.854;23.222;2024-03-06T00:29:45;10.77;;;10.47;;
8476;SDS011;4275;42.854;23.222;2024-03-06T00:32:11;10.40;;;10.10;;
8476;SDS011;4275;42.854;23.222;2024-03-06T00:34:38;9.60;;;9.30;;
8476;SDS011;4275;42.854;23.222;2024-03-06T00:37:07;8.50;;;8.30;;
8476;SDS011;4275;42.854;23.222;2024-03-06T00:39:34;9.43;;;9.17;;
8476;SDS011;4275;42.854;23.222;2024-03-06T00:42:01;9.10;;;8.90;;
8476;SDS011;4275;42.854;23.222;2024-03-06T00:44:28;9.27;;;9.07;;
8476;SDS011;4275;42.854;23.222;2024-03-06T00:46:55;8.90;;;8.70;;
8476;SDS011;4275;42.854;23.222;2024-03-06T00:49:22;9.20;;;9.00;;
8476;SDS011;4275;42.854;23.222;2024-03-06T00:51:49;9.90;;;9.60;;
8476;SDS011;4275;42.854;23.222;2024-03-06T00:54:17;10.53;;;10.23;;
8476;SDS011;4275;42.854;23.222;2024-03-06T00:56:44;9.27;;;9.07;;
8476;SDS011;4275;42.854;23.222;2024-03-06T00:59:11;9.83;;;9.53;;
8476;SDS011;4275;42.854;23.222;2024-03-06T01:01:38;9.93;;;9.63;;
8476;SDS011;4275;42.854;23.222;2024-03-06T01:04:05;10.73;;;10.43;;
8476;SDS011;4275;42.854;23.222;2024-03-06T01:06:32;10.00;;;9.70;;
8476;SDS011;4275;42.854;23.222;2024-03-06T01:08:59;10.07;;;9.77;;
8476;SDS011;4275;42.854;23.222;2024-03-06T01:11:27;9.90;;;9.60;;
8476;SDS011;4275;42.854;23.222;2024-03-06T01:13:54;10.43;;;10.13;;
8476;SDS011;4275;42.854;23.222;2024-03-06T01:16:21;10.63;;;10.33;;
8476;SDS011;4275;42.854;23.222;2024-03-06T01:18:48;10.87;;;10.57;;
8476;SDS011;4275;42.854;23.222;2024-03-06T01:21:15;9.30;;;9.10;;
8476;SDS011;4275;42.854;23.222;2024-03-06T01:23:42;9.77;;;9.47;;
8476;SDS011;4275;42.854;23.222;2024-03-06T01:26:09;10.53;;;10.23;;
8476;SDS011;4275;42.854;23.222;2024-03-06T01:28:38;10.20;;;9.90;;
8476;SDS011;4275;42.854;23.222;2024-03-06T01:31:05;10.87;;;10.57;;
8476;SDS011;4275;42.854;23.222;2024-03-06T01:33:32;10.53;;;10.23;;
8476;SDS011;4275;42.854;23.222;2024-03-06T01:35:59;10.73;;;10.43;;
8476;SDS011;4275;42.854;23.222;2024-03-06T01:38:25;10.10;;;9.80;;
8476;SDS011;4275;42.854;23.222;2024-03-06T01:40:52;10.10;;;9.80;;
8476;SDS011;4275;42.854;23.222;2024-03-06T01:43:20;9.80;;;9.50;;
8476;SDS011;4275;42.854;23.222;2024-03-06T01:45:49;9.73;;;9.43;;
8476;SDS011;4275;42.854;23.222;2024-03-06T01:48:19;10.60;;;10.30;;
8476;SDS011;4275;42.854;23.222;2024-03-06T01:50:48;12.23;;;11.83;;
8476;SDS011;4275;42.854;23.222;2024-03-06T01:53:15;10.77;;;10.47;;
8476;SDS011;4275;42.854;23.222;2024-03-06T01:55:44;11.27;;;10.97;;
8476;SDS011;4275;42.854;23.222;2024-03-06T01:58:11;11.50;;;11.20;;
8476;SDS011;4275;42.854;23.222;2024-03-06T02:00:39;11.80;;;11.50;;
8476;SDS011;4275;42.854;23.222;2024-03-06T02:03:08;12.80;;;12.40;;
8476;SDS011;4275;42.854;23.222;2024-03-06T02:05:36;12.03;;;11.73;;
8476;SDS011;4275;42.854;23.222;2024-03-06T02:08:03;10.73;;;10.43;;
8476;SDS011;4275;42.854;23.222;2024-03-06T02:10:33;11.60;;;11.30;;
8476;SDS011;4275;42.854;23.222;2024-03-06T02:13:00;11.53;;;11.23;;
8476;SDS011;4275;42.854;23.222;2024-03-06T02:15:26;11.53;;;11.23;;
8476;SDS011;4275;42.854;23.222;2024-03-06T02:17:53;11.63;;;11.33;;
8476;SDS011;4275;42.854;23.222;2024-03-06T02:20:23;10.43;;;10.13;;
8476;SDS011;4275;42.854;23.222;2024-03-06T02:22:50;10.60;;;10.30;;
8476;SDS011;4275;42.854;23.222;2024-03-06T02:25:17;11.17;;;10.87;;
8476;SDS011;4275;42.854;23.222;2024-03-06T02:27:45;11.17;;;10.87;;
8476;SDS011;4275;42.854;23.222;2024-03-06T02:30:13;11.20;;;10.90;;
8476;SDS011;4275;42.854;23.222;2024-03-06T02:32:43;10.80;;;10.50;;
8476;SDS011;4275;42.854;23.222;2024-03-06T02:35:10;12.20;;;11.87;;
8476;SDS011;4275;42.854;23.222;2024-03-06T02:37:38;10.90;;;10.60;;
8476;SDS011;4275;42.854;23.222;2024-03-06T02:40:07;11.70;;;11.40;;
8476;SDS011;4275;42.854;23.222;2024-03-06T02:42:35;10.70;;;10.40;;
8476;SDS011;4275;42.854;23.222;2024-03-06T02:45:04;10.47;;;10.17;;
8476;SDS011;4275;42.854;23.222;2024-03-06T02:47:32;10.83;;;10.53;;
8476;SDS011;4275;42.854;23.222;2024-03-06T02:49:59;11.53;;;11.23;;
8476;SDS011;4275;42.854;23.222;2024-03-06T02:52:26;11.53;;;11.23;;
8476;SDS011;4275;42.854;23.222;2024-03-06T02:54:54;10.87;;;10.57;;
8476;SDS011;4275;42.854;23.222;2024-03-06T02:57:21;10.20;;;9.90;;
8476;SDS011;4275;42.854;23.222;2024-03-06T02:59:48;9.17;;;8.97;;
8476;SDS011;4275;42.854;23.222;2024-03-06T03:02:15;9.90;;;9.60;;
8476;SDS011;4275;42.854;23.222;2024-03-06T03:04:42;10.60;;;10.30;;
8476;SDS011;4275;42.854;23.222;2024-03-06T03:07:09;10.77;;;10.47;;
8476;SDS011;4275;42.854;23.222;2024-03-06T03:09:37;9.60;;;9.30;;
8476;SDS011;4275;42.854;23.222;2024-03-06T03:12:06;9.87;;;9.57;;
8476;SDS011;4275;42.854;23.222;2024-03-06T03:14:33;9.60;;;9.30;;
8476;SDS011;4275;42.854;23.222;2024-03-06T03:17:00;9.80;;;9.50;;
8476;SDS011;4275;42.854;23.222;2024-03-06T03:19:27;11.50;;;11.20;;
8476;SDS011;4275;42.854;23.222;2024-03-06T03:21:54;11.40;;;11.10;;
8476;SDS011;4275;42.854;23.222;2024-03-06T03:24:21;11.70;;;11.40;;
8476;SDS011;4275;42.854;23.222;2024-03-06T03:26:49;13.20;;;12.80;;
8476;SDS011;4275;42.854;23.222;2024-03-06T03:29:17;11.40;;;11.10;;
8476;SDS011;4275;42.854;23.222;2024-03-06T03:31:46;10.50;;;10.20;;
8476;SDS011;4275;42.854;23.222;2024-03-06T03:34:13;10.70;;;10.40;;
8476;SDS011;4275;42.854;23.222;2024-03-06T03:36:40;11.10;;;10.80;;
8476;SDS011;4275;42.854;23.222;2024-03-06T03:39:07;10.37;;;10.07;;
8476;SDS011;4275;42.854;23.222;2024-03-06T03:41:42;9.40;;;9.20;;
8476;SDS011;4275;42.854;23.222;2024-03-06T03:44:11;10.30;;;10.00;;
8476;SDS011;4275;42.854;23.222;2024-03-06T03:46:39;10.37;;;10.07;;
8476;SDS011;4275;42.854;23.222;2024-03-06T03:49:06;11.60;;;11.30;;
8476;SDS011;4275;42.854;23.222;2024-03-06T03:51:34;10.87;;;10.57;;
8476;SDS011;4275;42.854;23.222;2024-03-06T03:54:01;11.73;;;11.43;;
8476;SDS011;4275;42.854;23.222;2024-03-06T03:56:28;11.40;;;11.10;;
8476;SDS011;4275;42.854;23.222;2024-03-06T03:58:55;11.63;;;11.33;;
8476;SDS011;4275;42.854;23.222;2024-03-06T04:01:22;10.87;;;10.57;;
8476;SDS011;4275;42.854;23.222;2024-03-06T04:03:51;9.77;;;9.47;;
8476;SDS011;4275;42.854;23.222;2024-03-06T04:06:18;9.90;;;9.60;;
8476;SDS011;4275;42.854;23.222;2024-03-06T04:08:45;10.30;;;10.00;;
8476;SDS011;4275;42.854;23.222;2024-03-06T04:11:12;9.70;;;9.40;;
8476;SDS011;4275;42.854;23.222;2024-03-06T04:13:39;10.20;;;9.90;;
8476;SDS011;4275;42.854;23.222;2024-03-06T04:16:06;9.53;;;9.23;;
8476;SDS011;4275;42.854;23.222;2024-03-06T04:18:33;9.30;;;9.10;;
8476;SDS011;4275;42.854;23.222;2024-03-06T04:21:03;10.10;;;9.80;;
8476;SDS011;4275;42.854;23.222;2024-03-06T04:23:31;10.83;;;10.53;;
8476;SDS011;4275;42.854;23.222;2024-03-06T04:25:58;10.70;;;10.40;;
8476;SDS011;4275;42.854;23.222;2024-03-06T04:28:25;10.87;;;10.57;;
8476;SDS011;4275;42.854;23.222;2024-03-06T04:30:52;10.37;;;10.07;;
8476;SDS011;4275;42.854;23.222;2024-03-06T04:33:19;11.40;;;11.10;;
8476;SDS011;4275;42.854;23.222;2024-03-06T04:35:56;10.60;;;10.30;;
8476;SDS011;4275;42.854;23.222;2024-03-06T04:38:24;10.50;;;10.20;;
8476;SDS011;4275;42.854;23.222;2024-03-06T04:40:51;10.33;;;10.03;;
8476;SDS011;4275;42.854;23.222;2024-03-06T04:43:18;10.50;;;10.20;;
8476;SDS011;4275;42.854;23.222;2024-03-06T04:45:45;10.73;;;10.43;;
8476;SDS011;4275;42.854;23.222;2024-03-06T04:48:12;10.33;;;10.03;;
8476;SDS011;4275;42.854;23.222;2024-03-06T04:50:41;10.00;;;9.70;;
8476;SDS011;4275;42.854;23.222;2024-03-06T04:53:09;9.40;;;9.10;;
8476;SDS011;4275;42.854;23.222;2024-03-06T04:55:38;9.87;;;9.57;;
8476;SDS011;4275;42.854;23.222;2024-03-06T04:58:05;9.60;;;9.30;;
8476;SDS011;4275;42.854;23.222;2024-03-06T05:00:32;10.57;;;10.27;;
8476;SDS011;4275;42.854;23.222;2024-03-06T05:02:59;11.47;;;11.17;;
8476;SDS011;4275;42.854;23.222;2024-03-06T05:08:31;10.27;;;9.97;;
8476;SDS011;4275;42.854;23.222;2024-03-06T05:11:00;10.10;;;9.80;;
8476;SDS011;4275;42.854;23.222;2024-03-06T05:13:27;10.33;;;10.03;;
8476;SDS011;4275;42.854;23.222;2024-03-06T05:15:54;10.40;;;10.10;;
8476;SDS011;4275;42.854;23.222;2024-03-06T05:18:21;10.50;;;10.20;;
8476;SDS011;4275;42.854;23.222;2024-03-06T05:20:48;8.30;;;8.10;;
8476;SDS011;4275;42.854;23.222;2024-03-06T05:23:15;9.20;;;9.00;;
8476;SDS011;4275;42.854;23.222;2024-03-06T05:25:42;9.97;;;9.67;;
8476;SDS011;4275;42.854;23.222;2024-03-06T05:28:11;9.40;;;9.10;;
8476;SDS011;4275;42.854;23.222;2024-03-06T05:30:38;9.63;;;9.33;;
8476;SDS011;4275;42.854;23.222;2024-03-06T05:33:05;9.93;;;9.63;;
8476;SDS011;4275;42.854;23.222;2024-03-06T05:35:32;9.10;;;8.90;;
8476;SDS011;4275;42.854;23.222;2024-03-06T05:37:59;8.20;;;8.00;;
8476;SDS011;4275;42.854;23.222;2024-03-06T05:40:25;8.23;;;8.03;;
8476;SDS011;4275;42.854;23.222;2024-03-06T05:42:52;8.00;;;7.80;;
8476;SDS011;4275;42.854;23.222;2024-03-06T05:45:21;7.73;;;7.53;;
8476;SDS011;4275;42.854;23.222;2024-03-06T05:47:48;7.10;;;6.90;;
8476;SDS011;4275;42.854;23.222;2024-03-06T05:50:15;6.50;;;6.30;;
8476;SDS011;4275;42.854;23.222;2024-03-06T05:52:41;6.63;;;6.43;;
8476;SDS011;4275;42.854;23.222;2024-03-06T05:55:08;6.50;;;6.30;;
8476;SDS011;4275;42.854;23.222;2024-03-06T05:57:35;8.03;;;7.83;;
8476;SDS011;4275;42.854;23.222;2024-03-06T06:00:02;8.73;;;8.53;;
8476;SDS011;4275;42.854;23.222;2024-03-06T06:02:37;8.90;;;8.70;;
8476;SDS011;4275;42.854;23.222;2024-03-06T06:05:04;9.30;;;9.00;;
8476;SDS011;4275;42.854;23.222;2024-03-06T06:07:32;9.90;;;9.60;;
8476;SDS011;4275;42.854;23.222;2024-03-06T06:09:59;10.17;;;9.87;;
8476;SDS011;4275;42.854;23.222;2024-03-06T06:12:26;10.40;;;10.10;;
8476;SDS011;4275;42.854;23.222;2024-03-06T06:14:53;9.90;;;9.60;;
8476;SDS011;4275;42.854;23.222;2024-03-06T06:17:20;10.30;;;10.00;;
8476;SDS011;4275;42.854;23.222;2024-03-06T06:19:49;10.67;;;10.37;;
8476;SDS011;4275;42.854;23.222;2024-03-06T06:22:16;10.30;;;10.00;;
8476;SDS011;4275;42.854;23.222;2024-03-06T06:24:43;10.53;;;10.23;;
8476;SDS011;4275;42.854;23.222;2024-03-06T06:27:20;10.80;;;10.50;;
8476;SDS011;4275;42.854;23.222;2024-03-06T06:29:47;10.77;;;10.47;;
8476;SDS011;4275;42.854;23.222;2024-03-06T06:35:09;12.83;;;12.43;;
8476;SDS011;4275;42.854;23.222;2024-03-06T06:37:36;13.40;;;12.90;;
8476;SDS011;4275;42.854;23.222;2024-03-06T06:40:04;14.10;;;13.60;;
8476;SDS011;4275;42.854;23.222;2024-03-06T06:42:33;13.53;;;13.10;;
8476;SDS011;4275;42.854;23.222;2024-03-06T06:45:00;13.30;;;12.90;;
8476;SDS011;4275;42.854;23.222;2024-03-06T06:47:27;13.80;;;13.30;;
8476;SDS011;4275;42.854;23.222;2024-03-06T06:49:54;13.87;;;13.37;;
8476;SDS011;4275;42.854;23.222;2024-03-06T06:52:23;13.83;;;13.40;;
8476;SDS011;4275;42.854;23.222;2024-03-06T06:54:52;13.33;;;12.93;;
8476;SDS011;4275;42.854;23.222;2024-03-06T06:57:19;13.97;;;13.47;;
8476;SDS011;4275;42.854;23.222;2024-03-06T06:59:46;14.43;;;13.93;;
8476;SDS011;4275;42.854;23.222;2024-03-06T07:02:13;14.57;;;14.07;;
8476;SDS011;4275;42.854;23.222;2024-03-06T07:04:40;12.83;;;12.43;;
8476;SDS011;4275;42.854;23.222;2024-03-06T07:07:07;12.93;;;12.53;;
8476;SDS011;4275;42.854;23.222;2024-03-06T07:09:35;15.87;;;15.17;;
8476;SDS011;4275;42.854;23.222;2024-03-06T07:12:02;14.10;;;13.60;;
8476;SDS011;4275;42.854;23.222;2024-03-06T07:14:29;12.30;;;11.90;;
8476;SDS011;4275;42.854;23.222;2024-03-06T07:16:56;12.90;;;12.50;;
8476;SDS011;4275;42.854;23.222;2024-03-06T07:19:23;13.50;;;13.10;;
8476;SDS011;4275;42.854;23.222;2024-03-06T07:21:50;13.27;;;12.87;;
8476;SDS011;4275;42.854;23.222;2024-03-06T07:24:18;12.50;;;12.10;;
8476;SDS011;4275;42.854;23.222;2024-03-06T07:26:47;12.20;;;11.80;;
8476;SDS011;4275;42.854;23.222;2024-03-06T07:29:14;14.13;;;13.63;;
8476;SDS011;4275;42.854;23.222;2024-03-06T07:31:41;14.13;;;13.63;;
8476;SDS011;4275;42.854;23.222;2024-03-06T07:34:08;12.90;;;12.50;;
8476;SDS011;4275;42.854;23.222;2024-03-06T07:36:35;13.10;;;12.70;;
8476;SDS011;4275;42.854;23.222;2024-03-06T07:42:25;14.20;;;13.70;;
8476;SDS011;4275;42.854;23.222;2024-03-06T07:44:52;13.10;;;12.60;;
8476;SDS011;4275;42.854;23.222;2024-03-06T07:47:19;13.77;;;13.17;;
8476;SDS011;4275;42.854;23.222;2024-03-06T07:49:46;19.17;;;18.27;;
8476;SDS011;4275;42.854;23.222;2024-03-06T07:52:15;19.30;;;18.30;;
8476;SDS011;4275;42.854;23.222;2024-03-06T07:54:42;16.30;;;15.30;;
8476;SDS011;4275;42.854;23.222;2024-03-06T07:57:09;16.38;;;15.38;;
8476;SDS011;4275;42.854;23.222;2024-03-06T07:59:37;19.15;;;18.05;;
8476;SDS011;4275;42.854;23.222;2024-03-06T08:02:05;23.13;;;21.80;;
8476;SDS011;4275;42.854;23.222;2024-03-06T08:04:32;17.92;;;16.73;;
8476;SDS011;4275;42.854;23.222;2024-03-06T08:07:00;18.52;;;17.27;;
8476;SDS011;4275;42.854;23.222;2024-03-06T08:09:27;23.80;;;22.30;;
8476;SDS011;4275;42.854;23.222;2024-03-06T08:11:54;23.80;;;22.27;;
8476;SDS011;4275;42.854;23.222;2024-03-06T08:14:21;18.13;;;16.88;;
8476;SDS011;4275;42.854;23.222;2024-03-06T08:20:05;23.10;;;21.60;;
8476;SDS011;4275;42.854;23.222;2024-03-06T08:22:33;25.50;;;23.80;;
8476;SDS011;4275;42.854;23.222;2024-03-06T08:25:04;42.30;;;30.45;;
8476;SDS011;4275;42.854;23.222;2024-03-06T08:27:32;18.35;;;17.05;;
8476;SDS011;4275;42.854;23.222;2024-03-06T08:30:00;24.33;;;22.73;;
8476;SDS011;4275;42.854;23.222;2024-03-06T08:32:29;25.20;;;23.50;;
8476;SDS011;4275;42.854;23.222;2024-03-06T08:34:56;25.48;;;23.77;;
8476;SDS011;4275;42.854;23.222;2024-03-06T08:40:46;26.15;;;24.35;;
8476;SDS011;4275;42.854;23.222;2024-03-06T08:43:14;33.30;;;31.10;;
8476;SDS011;4275;42.854;23.222;2024-03-06T08:45:41;25.13;;;23.42;;
8476;SDS011;4275;42.854;23.222;2024-03-06T08:48:08;25.95;;;24.25;;
8476;SDS011;4275;42.854;23.222;2024-03-06T08:50:35;26.55;;;24.75;;
8476;SDS011;4275;42.854;23.222;2024-03-06T08:53:02;25.80;;;24.00;;
8476;SDS011;4275;42.854;23.222;2024-03-06T08:55:29;26.38;;;24.58;;
8476;SDS011;4275;42.854;23.222;2024-03-06T08:57:57;25.90;;;24.10;;
8476;SDS011;4275;42.854;23.222;2024-03-06T09:00:26;27.55;;;25.63;;
8476;SDS011;4275;42.854;23.222;2024-03-06T09:02:53;19.02;;;17.52;;
8476;SDS011;4275;42.854;23.222;2024-03-06T09:05:20;24.13;;;22.30;;
8476;SDS011;4275;42.854;23.222;2024-03-06T09:07:47;25.80;;;23.90;;
8476;SDS011;4275;42.854;23.222;2024-03-06T09:10:14;26.08;;;24.17;;
8476;SDS011;4275;42.854;23.222;2024-03-06T09:12:41;19.95;;;18.35;;
8476;SDS011;4275;42.854;23.222;2024-03-06T09:15:09;20.10;;;18.50;;
8476;SDS011;4275;42.854;23.222;2024-03-06T09:17:36;26.52;;;24.63;;
8476;SDS011;4275;42.854;23.222;2024-03-06T09:20:04;27.40;;;25.40;;
8476;SDS011;4275;42.854;23.222;2024-03-06T09:22:35;20.38;;;18.77;;
8476;SDS011;4275;42.854;23.222;2024-03-06T09:25:03;20.75;;;19.08;;
8476;SDS011;4275;42.854;23.222;2024-03-06T09:27:31;26.58;;;24.67;;
8476;SDS011;4275;42.854;23.222;2024-03-06T09:29:58;29.23;;;27.13;;
8476;SDS011;4275;42.854;23.222;2024-03-06T09:32:26;21.35;;;19.65;;
8476;SDS011;4275;42.854;23.222;2024-03-06T09:34:53;26.88;;;24.95;;
8476;SDS011;4275;42.854;23.222;2024-03-06T09:37:20;26.60;;;24.70;;
8476;SDS011;4275;42.854;23.222;2024-03-06T09:39:47;20.92;;;19.23;;
8476;SDS011;4275;42.854;23.222;2024-03-06T09:42:14;22.55;;;20.83;;
8476;SDS011;4275;42.854;23.222;2024-03-06T09:44:41;25.38;;;23.58;;
8476;SDS011;4275;42.854;23.222;2024-03-06T09:47:10;27.73;;;25.73;;
8476;SDS011;4275;42.854;23.222;2024-03-06T09:49:41;22.70;;;20.90;;
8476;SDS011;4275;42.854;23.222;2024-03-06T09:52:08;21.48;;;19.77;;
8476;SDS011;4275;42.854;23.222;2024-03-06T09:54:37;28.95;;;26.85;;
8476;SDS011;4275;42.854;23.222;2024-03-06T09:57:05;31.38;;;28.60;;
8476;SDS011;4275;42.854;23.222;2024-03-06T09:59:32;21.70;;;20.00;;
8476;SDS011;4275;42.854;23.222;2024-03-06T10:02:00;26.85;;;24.95;;
8476;SDS011;4275;42.854;23.222;2024-03-06T10:04:34;28.10;;;26.10;;
8476;SDS011;4275;42.854;23.222;2024-03-06T10:07:04;21.58;;;19.88;;
8476;SDS011;4275;42.854;23.222;2024-03-06T10:09:33;22.08;;;20.27;;
8476;SDS011;4275;42.854;23.222;2024-03-06T10:12:00;28.77;;;26.67;;
8476;SDS011;4275;42.854;23.222;2024-03-06T10:14:28;35.83;;;33.33;;
8476;SDS011;4275;42.854;23.222;2024-03-06T10:16:56;22.17;;;20.38;;
8476;SDS011;4275;42.854;23.222;2024-03-06T10:19:24;22.60;;;20.80;;
8476;SDS011;4275;42.854;23.222;2024-03-06T10:21:52;35.92;;;33.53;;
8476;SDS011;4275;42.854;23.222;2024-03-06T10:24:22;22.05;;;20.25;;
8476;SDS011;4275;42.854;23.222;2024-03-06T10:26:50;21.95;;;20.15;;
8476;SDS011;4275;42.854;23.222;2024-03-06T10:29:19;29.15;;;27.00;;
8476;SDS011;4275;42.854;23.222;2024-03-06T10:31:47;28.00;;;26.00;;
8476;SDS011;4275;42.854;23.222;2024-03-06T10:34:16;22.25;;;20.45;;
8476;SDS011;4275;42.854;23.222;2024-03-06T10:36:44;22.25;;;20.55;;
8476;SDS011;4275;42.854;23.222;2024-03-06T10:39:11;38.92;;;36.38;;
8476;SDS011;4275;42.854;23.222;2024-03-06T10:41:42;23.65;;;21.85;;
8476;SDS011;4275;42.854;23.222;2024-03-06T10:44:12;21.88;;;20.17;;
8476;SDS011;4275;42.854;23.222;2024-03-06T10:46:44;22.33;;;20.58;;
8476;SDS011;4275;42.854;23.222;2024-03-06T10:49:12;27.98;;;25.98;;
8476;SDS011;4275;42.854;23.222;2024-03-06T10:51:40;22.63;;;20.92;;
8476;SDS011;4275;42.854;23.222;2024-03-06T10:54:09;22.88;;;21.17;;
8476;SDS011;4275;42.854;23.222;2024-03-06T10:56:38;30.42;;;28.23;;
8476;SDS011;4275;42.854;23.222;2024-03-06T10:59:09;30.00;;;27.90;;
8476;SDS011;4275;42.854;23.222;2024-03-06T11:01:39;22.33;;;20.63;;
8476;SDS011;4275;42.854;23.222;2024-03-06T11:04:09;22.70;;;20.90;;
8476;SDS011;4275;42.854;23.222;2024-03-06T11:06:36;31.05;;;28.85;;
8476;SDS011;4275;42.854;23.222;2024-03-06T11:09:04;22.35;;;20.63;;
8476;SDS011;4275;42.854;23.222;2024-03-06T11:11:46;22.05;;;20.35;;
8476;SDS011;4275;42.854;23.222;2024-03-06T11:14:16;29.88;;;27.67;;
8476;SDS011;4275;42.854;23.222;2024-03-06T11:16:56;29.95;;;27.85;;
8476;SDS011;4275;42.854;23.222;2024-03-06T11:19:25;23.05;;;21.25;;
8476;SDS011;4275;42.854;23.222;2024-03-06T11:21:52;23.60;;;21.80;;
8476;SDS011;4275;42.854;23.222;2024-03-06T11:24:19;29.67;;;27.58;;
8476;SDS011;4275;42.854;23.222;2024-03-06T11:26:48;23.30;;;21.60;;
8476;SDS011;4275;42.854;23.222;2024-03-06T11:29:28;22.75;;;21.05;;
8476;SDS011;4275;42.854;23.222;2024-03-06T11:32:00;24.20;;;22.48;;
8476;SDS011;4275;42.854;23.222;2024-03-06T11:34:29;29.75;;;27.75;;
8476;SDS011;4275;42.854;23.222;2024-03-06T11:36:57;22.00;;;20.30;;
8476;SDS011;4275;42.854;23.222;2024-03-06T11:39:27;34.28;;;32.05;;
8476;SDS011;4275;42.854;23.222;2024-03-06T11:41:55;27.92;;;26.02;;
8476;SDS011;4275;42.854;23.222;2024-03-06T11:44:22;21.40;;;19.80;;
8476;SDS011;4275;42.854;23.222;2024-03-06T11:46:57;21.23;;;19.73;;
8476;SDS011;4275;42.854;23.222;2024-03-06T11:49:25;22.80;;;21.17;;
8476;SDS011;4275;42.854;23.222;2024-03-06T11:51:55;25.05;;;23.35;;
8476;SDS011;4275;42.854;23.222;2024-03-06T11:54:23;20.40;;;19.00;;
8476;SDS011;4275;42.854;23.222;2024-03-06T11:56:52;26.42;;;24.63;;
8476;SDS011;4275;42.854;23.222;2024-03-06T11:59:20;25.23;;;23.52;;
8476;SDS011;4275;42.854;23.222;2024-03-06T12:01:48;26.92;;;25.05;;
8476;SDS011;4275;42.854;23.222;2024-03-06T12:04:17;21.20;;;19.70;;
8476;SDS011;4275;42.854;23.222;2024-03-06T12:06:45;21.45;;;19.85;;
8476;SDS011;4275;42.854;23.222;2024-03-06T12:09:12;26.38;;;24.58;;
8476;SDS011;4275;42.854;23.222;2024-03-06T12:11:40;25.73;;;23.92;;
8476;SDS011;4275;42.854;23.222;2024-03-06T12:14:12;21.00;;;19.50;;
8476;SDS011;4275;42.854;23.222;2024-03-06T12:16:40;21.40;;;19.90;;
8476;SDS011;4275;42.854;23.222;2024-03-06T12:19:07;24.73;;;23.13;;
8476;SDS011;4275;42.854;23.222;2024-03-06T12:21:36;21.25;;;19.77;;
8476;SDS011;4275;42.854;23.222;2024-03-06T12:24:06;21.27;;;19.80;;
8476;SDS011;4275;42.854;23.222;2024-03-06T12:26:34;26.27;;;24.50;;
8476;SDS011;4275;42.854;23.222;2024-03-06T12:29:06;32.45;;;30.45;;
8476;SDS011;4275;42.854;23.222;2024-03-06T12:31:33;21.27;;;19.77;;
8476;SDS011;4275;42.854;23.222;2024-03-06T12:34:01;21.35;;;19.75;;
8476;SDS011;4275;42.854;23.222;2024-03-06T12:36:29;28.30;;;26.40;;
8476;SDS011;4275;42.854;23.222;2024-03-06T12:38:58;23.98;;;22.27;;
8476;SDS011;4275;42.854;23.222;2024-03-06T12:41:25;21.50;;;19.83;;
8476;SDS011;4275;42.854;23.222;2024-03-06T12:43:53;21.85;;;20.15;;
8476;SDS011;4275;42.854;23.222;2024-03-06T12:46:21;27.05;;;25.15;;
8476;SDS011;4275;42.854;23.222;2024-03-06T12:48:48;21.95;;;20.35;;
8476;SDS011;4275;42.854;23.222;2024-03-06T12:51:15;24.88;;;23.08;;
8476;SDS011;4275;42.854;23.222;2024-03-06T12:53:42;27.27;;;25.38;;
8476;SDS011;4275;42.854;23.222;2024-03-06T12:56:10;29.83;;;27.73;;
8476;SDS011;4275;42.854;23.222;2024-03-06T12:58:37;32.03;;;29.92;;
8476;SDS011;4275;42.854;23.222;2024-03-06T13:01:04;22.52;;;20.92;;
8476;SDS011;4275;42.854;23.222;2024-03-06T13:03:31;30.17;;;28.17;;
8476;SDS011;4275;42.854;23.222;2024-03-06T13:05:58;26.20;;;24.40;;
8476;SDS011;4275;42.854;23.222;2024-03-06T13:08:26;22.08;;;20.48;;
8476;SDS011;4275;42.854;23.222;2024-03-06T13:10:53;22.38;;;20.77;;
8476;SDS011;4275;42.854;23.222;2024-03-06T13:13:22;27.05;;;25.25;;
8476;SDS011;4275;42.854;23.222;2024-03-06T13:15:50;28.58;;;26.67;;
8476;SDS011;4275;42.854;23.222;2024-03-06T13:18:17;21.88;;;20.27;;
8476;SDS011;4275;42.854;23.222;2024-03-06T13:20:44;22.35;;;20.75;;
8476;SDS011;4275;42.854;23.222;2024-03-06T13:23:11;26.73;;;24.98;;
8476;SDS011;4275;42.854;23.222;2024-03-06T13:25:38;21.60;;;20.10;;
8476;SDS011;4275;42.854;23.222;2024-03-06T13:28:06;21.90;;;20.40;;
8476;SDS011;4275;42.854;23.222;2024-03-06T13:30:35;25.27;;;23.58;;
8476;SDS011;4275;42.854;23.222;2024-03-06T13:33:03;28.08;;;26.27;;
8476;SDS011;4275;42.854;23.222;2024-03-06T13:35:30;21.80;;;20.30;;
8476;SDS011;4275;42.854;23.222;2024-03-06T13:37:57;23.30;;;21.70;;
8476;SDS011;4275;42.854;23.222;2024-03-06T13:40:24;32.28;;;30.27;;
8476;SDS011;4275;42.854;23.222;2024-03-06T13:42:52;22.30;;;20.70;;
8476;SDS011;4275;42.854;23.222;2024-03-06T13:45:19;21.70;;;20.20;;
8476;SDS011;4275;42.854;23.222;2024-03-06T13:47:47;22.38;;;20.77;;
8476;SDS011;4275;42.854;23.222;2024-03-06T13:50:15;26.35;;;24.55;;
8476;SDS011;4275;42.854;23.222;2024-03-06T13:52:43;22.20;;;20.60;;
8476;SDS011;4275;42.854;23.222;2024-03-06T13:55:10;21.88;;;20.38;;
8476;SDS011;4275;42.854;23.222;2024-03-06T13:57:38;29.30;;;27.40;;
8476;SDS011;4275;42.854;23.222;2024-03-06T14:00:07;21.98;;;20.48;;
8476;SDS011;4275;42.854;23.222;2024-03-06T14:02:42;23.25;;;21.75;;
8476;SDS011;4275;42.854;23.222;2024-03-06T14:05:11;26.75;;;25.23;;
8476;SDS011;4275;42.854;23.222;2024-03-06T14:07:38;36.08;;;33.67;;
8476;SDS011;4275;42.854;23.222;2024-03-06T14:10:06;35.15;;;32.65;;
8476;SDS011;4275;42.854;23.222;2024-03-06T14:12:35;30.88;;;28.98;;
8476;SDS011;4275;42.854;23.222;2024-03-06T14:15:02;30.75;;;28.85;;
8476;SDS011;4275;42.854;23.222;2024-03-06T14:17:30;30.35;;;28.45;;
8476;SDS011;4275;42.854;23.222;2024-03-06T14:19:57;27.52;;;26.02;;
8476;SDS011;4275;42.854;23.222;2024-03-06T14:22:25;25.10;;;23.70;;
8476;SDS011;4275;42.854;23.222;2024-03-06T14:24:52;25.55;;;24.23;;
8476;SDS011;4275;42.854;23.222;2024-03-06T14:37:07;27.10;;;25.70;;
8476;SDS011;4275;42.854;23.222;2024-03-06T14:39:36;24.83;;;23.63;;
8476;SDS011;4275;42.854;23.222;2024-03-06T14:51:31;24.23;;;22.93;;
8476;SDS011;4275;42.854;23.222;2024-03-06T14:53:58;26.07;;;24.67;;
8476;SDS011;4275;42.854;23.222;2024-03-06T14:59:47;27.27;;;25.87;;
8476;SDS011;4275;42.854;23.222;2024-03-06T15:02:14;27.57;;;26.07;;
8476;SDS011;4275;42.854;23.222;2024-03-06T15:04:41;27.23;;;25.73;;
8476;SDS011;4275;42.854;23.222;2024-03-06T15:07:08;31.13;;;29.43;;
8476;SDS011;4275;42.854;23.222;2024-03-06T15:09:36;29.67;;;28.07;;
8476;SDS011;4275;42.854;23.222;2024-03-06T15:12:03;30.15;;;28.55;;
8476;SDS011;4275;42.854;23.222;2024-03-06T15:14:32;29.50;;;27.90;;
8476;SDS011;4275;42.854;23.222;2024-03-06T15:17:01;31.17;;;29.48;;
8476;SDS011;4275;42.854;23.222;2024-03-06T15:19:29;30.47;;;28.77;;